sensor_id;sensor_type;location;lat;lon;timestamp;pressure;altitude;pressure_sealevel;temperature;humidity
12759;BME280;20944;47.048;15.390;2022-12-31T00:00:50;97939.78;;;2.79;100.00
12759;BME280;20944;47.048;15.390;2022-12-31T00:03:19;97941.50;;;2.80;100.00
12759;BME280;20944;47.048;15.390;2022-12-31T00:05:48;97949.28;;;2.82;100.00
12759;BME280;20944;47.048;15.390;2022-12-31T00:08:16;97930.25;;;2.74;100.00
12759;BME280;20944;47.048;15.390;2022-12-31T00:10:44;97929.53;;;2.93;100.00
12759;BME280;20944;47.048;15.390;2022-12-31T00:13:12;97925.13;;;2.78;100.00
12759;BME280;20944;47.048;15.390;2022-12-31T00:15:42;97905.09;;;2.54;100.00
12759;BME280;20944;47.048;15.390;2022-12-31T00:18:10;97870.84;;;1.87;100.00
12759;BME280;20944;47.048;15.390;2022-12-31T00:20:40;97943.88;;;2.54;100.00
12759;BME280;20944;47.048;15.390;2022-12-31T00:23:09;97947.38;;;2.59;100.00
12759;BME280;20944;47.048;15.390;2022-12-31T00:25:37;97953.47;;;2.66;100.00
12759;BME280;20944;47.048;15.390;2022-12-31T00:28:05;97959.34;;;2.51;100.00
12759;BME280;20944;47.048;15.390;2022-12-31T00:30:33;97852.88;;;1.96;100.00
12759;BME280;20944;47.048;15.390;2022-12-31T00:33:02;97968.06;;;2.58;100.00
12759;BME280;20944;47.048;15.390;2022-12-31T00:35:30;97960.06;;;2.33;100.00
12759;BME280;20944;47.048;15.390;2022-12-31T00:38:01;97913.44;;;2.24;100.00
12759;BME280;20944;47.048;15.390;2022-12-31T00:40:30;97942.09;;;2.47;100.00
12759;BME280;20944;47.048;15.390;2022-12-31T00:42:58;97955.91;;;2.49;100.00
12759;BME280;20944;47.048;15.390;2022-12-31T00:45:26;97961.06;;;2.46;100.00
12759;BME280;20944;47.048;15.390;2022-12-31T00:47:54;97943.66;;;2.30;100.00
12759;BME280;20944;47.048;15.390;2022-12-31T00:50:22;97915.13;;;2.21;100.00
12759;BME280;20944;47.048;15.390;2022-12-31T00:52:51;97956.75;;;2.50;100.00
12759;BME280;20944;47.048;15.390;2022-12-31T00:55:20;97965.44;;;2.53;100.00
12759;BME280;20944;47.048;15.390;2022-12-31T00:57:48;97966.28;;;2.55;100.00
12759;BME280;20944;47.048;15.390;2022-12-31T01:00:17;97940.44;;;2.55;100.00
12759;BME280;20944;47.048;15.390;2022-12-31T01:02:45;97922.22;;;2.41;100.00
12759;BME280;20944;47.048;15.390;2022-12-31T01:05:13;97967.16;;;2.56;100.00
12759;BME280;20944;47.048;15.390;2022-12-31T01:07:42;97970.59;;;2.53;100.00
12759;BME280;20944;47.048;15.390;2022-12-31T01:10:10;97971.47;;;2.55;100.00
12759;BME280;20944;47.048;15.390;2022-12-31T01:12:39;97936.78;;;2.33;100.00
12759;BME280;20944;47.048;15.390;2022-12-31T01:15:08;97961.00;;;2.44;100.00
12759;BME280;20944;47.048;15.390;2022-12-31T01:17:37;97984.41;;;2.54;100.00
12759;BME280;20944;47.048;15.390;2022-12-31T01:20:06;98001.69;;;2.58;100.00
12759;BME280;20944;47.048;15.390;2022-12-31T01:22:34;98014.69;;;2.67;100.00
12759;BME280;20944;47.048;15.390;2022-12-31T01:25:03;98012.22;;;2.81;100.00
12759;BME280;20944;47.048;15.390;2022-12-31T01:27:31;97912.16;;;1.82;100.00
12759;BME280;20944;47.048;15.390;2022-12-31T01:30:01;98016.34;;;2.59;100.00
12759;BME280;20944;47.048;15.390;2022-12-31T01:32:29;98023.25;;;2.58;100.00
12759;BME280;20944;47.048;15.390;2022-12-31T01:34:57;98013.66;;;2.50;100.00
12759;BME280;20944;47.048;15.390;2022-12-31T01:37:25;98010.22;;;2.51;100.00
12759;BME280;20944;47.048;15.390;2022-12-31T01:39:54;98018.84;;;2.51;100.00
12759;BME280;20944;47.048;15.390;2022-12-31T01:42:23;98018.03;;;2.57;100.00
12759;BME280;20944;47.048;15.390;2022-12-31T01:44:53;98019.81;;;2.64;100.00
12759;BME280;20944;47.048;15.390;2022-12-31T01:47:32;98019.00;;;2.65;100.00
12759;BME280;20944;47.048;15.390;2022-12-31T01:50:06;97999.00;;;2.50;100.00
12759;BME280;20944;47.048;15.390;2022-12-31T01:52:37;98030.22;;;2.68;100.00
12759;BME280;20944;47.048;15.390;2022-12-31T01:55:14;97999.91;;;2.52;100.00
12759;BME280;20944;47.048;15.390;2022-12-31T01:57:45;97984.28;;;2.43;100.00
12759;BME280;20944;47.048;15.390;2022-12-31T02:00:14;98037.25;;;2.82;100.00
12759;BME280;20944;47.048;15.390;2022-12-31T02:02:44;98038.81;;;2.64;100.00
12759;BME280;20944;47.048;15.390;2022-12-31T02:05:18;98043.06;;;2.59;100.00
12759;BME280;20944;47.048;15.390;2022-12-31T02:07:49;98050.78;;;2.53;100.00
12759;BME280;20944;47.048;15.390;2022-12-31T02:10:18;97874.66;;;1.42;100.00
12759;BME280;20944;47.048;15.390;2022-12-31T02:12:48;98059.47;;;2.60;100.00
12759;BME280;20944;47.048;15.390;2022-12-31T02:15:18;98059.44;;;2.58;100.00
12759;BME280;20944;47.048;15.390;2022-12-31T02:17:55;98061.94;;;2.51;100.00
12759;BME280;20944;47.048;15.390;2022-12-31T02:20:50;98055.94;;;2.53;100.00
12759;BME280;20944;47.048;15.390;2022-12-31T02:23:59;98066.34;;;2.59;100.00
12759;BME280;20944;47.048;15.390;2022-12-31T02:26:43;98022.19;;;2.41;100.00
12759;BME280;20944;47.048;15.390;2022-12-31T02:29:48;98066.44;;;2.68;100.00
12759;BME280;20944;47.048;15.390;2022-12-31T02:32:21;98065.69;;;2.80;100.00
12759;BME280;20944;47.048;15.390;2022-12-31T02:34:51;98055.41;;;2.86;100.00
12759;BME280;20944;47.048;15.390;2022-12-31T02:37:24;98023.31;;;2.69;100.00
12759;BME280;20944;47.048;15.390;2022-12-31T02:39:54;98041.53;;;2.77;100.00
12759;BME280;20944;47.048;15.390;2022-12-31T02:42:22;98027.63;;;2.68;100.00
12759;BME280;20944;47.048;15.390;2022-12-31T02:44:52;98035.34;;;2.62;100.00
12759;BME280;20944;47.048;15.390;2022-12-31T02:47:29;98042.22;;;2.62;100.00
12759;BME280;20944;47.048;15.390;2022-12-31T02:50:15;98009.25;;;2.41;100.00
12759;BME280;20944;47.048;15.390;2022-12-31T02:52:53;98053.44;;;2.61;100.00
12759;BME280;20944;47.048;15.390;2022-12-31T02:55:29;98050.91;;;2.65;100.00
12759;BME280;20944;47.048;15.390;2022-12-31T02:58:07;98052.59;;;2.63;100.00
12759;BME280;20944;47.048;15.390;2022-12-31T03:00:45;98051.75;;;2.64;100.00
12759;BME280;20944;47.048;15.390;2022-12-31T03:03:34;98053.44;;;2.64;100.00
12759;BME280;20944;47.048;15.390;2022-12-31T03:06:03;98046.59;;;2.66;100.00
12759;BME280;20944;47.048;15.390;2022-12-31T03:08:34;98051.00;;;2.76;100.00
12759;BME280;20944;47.048;15.390;2022-12-31T03:11:22;98028.41;;;2.58;100.00
12759;BME280;20944;47.048;15.390;2022-12-31T03:14:05;98056.09;;;2.68;100.00
12759;BME280;20944;47.048;15.390;2022-12-31T03:16:34;98010.91;;;2.33;100.00
12759;BME280;20944;47.048;15.390;2022-12-31T03:19:02;98068.88;;;2.55;100.00
12759;BME280;20944;47.048;15.390;2022-12-31T03:21:48;98057.63;;;2.50;100.00
12759;BME280;20944;47.048;15.390;2022-12-31T03:24:33;98051.69;;;2.60;100.00
12759;BME280;20944;47.048;15.390;2022-12-31T03:27:19;98057.69;;;2.56;100.00
12759;BME280;20944;47.048;15.390;2022-12-31T03:29:47;98057.75;;;2.60;100.00
12759;BME280;20944;47.048;15.390;2022-12-31T03:32:17;98003.91;;;2.24;100.00
12759;BME280;20944;47.048;15.390;2022-12-31T03:34:46;98049.06;;;2.57;100.00
12759;BME280;20944;47.048;15.390;2022-12-31T03:37:14;98052.50;;;2.54;100.00
12759;BME280;20944;47.048;15.390;2022-12-31T03:39:43;98029.88;;;2.35;100.00
12759;BME280;20944;47.048;15.390;2022-12-31T03:42:12;98043.94;;;2.58;100.00
12759;BME280;20944;47.048;15.390;2022-12-31T03:44:40;98053.63;;;2.78;100.00
12759;BME280;20944;47.048;15.390;2022-12-31T03:47:10;98060.50;;;2.79;100.00
12759;BME280;20944;47.048;15.390;2022-12-31T03:49:40;98055.28;;;2.73;100.00
12759;BME280;20944;47.048;15.390;2022-12-31T03:52:09;98066.41;;;2.65;100.00
12759;BME280;20944;47.048;15.390;2022-12-31T03:54:37;98087.91;;;2.58;100.00
12759;BME280;20944;47.048;15.390;2022-12-31T03:57:06;98094.69;;;2.50;100.00
12759;BME280;20944;47.048;15.390;2022-12-31T03:59:35;98108.53;;;2.55;100.00
12759;BME280;20944;47.048;15.390;2022-12-31T04:02:03;98102.66;;;2.67;100.00
12759;BME280;20944;47.048;15.390;2022-12-31T04:04:32;98122.63;;;2.82;100.00
12759;BME280;20944;47.048;15.390;2022-12-31T04:07:02;98132.91;;;2.76;100.00
12759;BME280;20944;47.048;15.390;2022-12-31T04:09:31;98138.78;;;2.59;100.00
12759;BME280;20944;47.048;15.390;2022-12-31T04:11:59;98132.63;;;2.50;100.00
12759;BME280;20944;47.048;15.390;2022-12-31T04:14:28;98138.78;;;2.59;100.00
12759;BME280;20944;47.048;15.390;2022-12-31T04:16:57;98134.41;;;2.55;100.00
12759;BME280;20944;47.048;15.390;2022-12-31T04:19:26;98023.22;;;1.82;100.00
12759;BME280;20944;47.048;15.390;2022-12-31T04:21:55;98117.03;;;2.45;100.00
12759;BME280;20944;47.048;15.390;2022-12-31T04:24:25;98131.72;;;2.46;100.00
12759;BME280;20944;47.048;15.390;2022-12-31T04:26:53;98142.94;;;2.47;100.00
12759;BME280;20944;47.048;15.390;2022-12-31T04:29:29;98094.34;;;2.21;100.00
12759;BME280;20944;47.048;15.390;2022-12-31T04:31:58;98096.16;;;2.27;100.00
12759;BME280;20944;47.048;15.390;2022-12-31T04:34:26;98137.78;;;2.48;100.00
12759;BME280;20944;47.048;15.390;2022-12-31T04:36:55;98159.41;;;2.56;100.00
12759;BME280;20944;47.048;15.390;2022-12-31T04:39:26;98154.25;;;2.55;100.00
12759;BME280;20944;47.048;15.390;2022-12-31T04:41:54;98158.47;;;2.50;100.00
12759;BME280;20944;47.048;15.390;2022-12-31T04:44:23;98147.19;;;2.43;100.00
12759;BME280;20944;47.048;15.390;2022-12-31T04:46:52;98153.25;;;2.45;100.00
12759;BME280;20944;47.048;15.390;2022-12-31T04:49:21;98172.34;;;2.53;100.00
12759;BME280;20944;47.048;15.390;2022-12-31T04:51:49;98179.22;;;2.54;100.00
12759;BME280;20944;47.048;15.390;2022-12-31T04:54:18;98068.09;;;1.91;100.00
12759;BME280;20944;47.048;15.390;2022-12-31T04:56:48;98180.19;;;2.62;100.00
12759;BME280;20944;47.048;15.390;2022-12-31T04:59:16;98180.25;;;2.65;100.00
12759;BME280;20944;47.048;15.390;2022-12-31T05:01:45;98166.31;;;2.56;100.00
12759;BME280;20944;47.048;15.390;2022-12-31T05:04:14;98191.56;;;2.75;100.00
12759;BME280;20944;47.048;15.390;2022-12-31T05:06:43;98191.53;;;2.72;100.00
12759;BME280;20944;47.048;15.390;2022-12-31T05:09:12;98189.91;;;2.82;100.00
12759;BME280;20944;47.048;15.390;2022-12-31T05:11:40;98191.63;;;2.83;100.00
12759;BME280;20944;47.048;15.390;2022-12-31T05:14:11;98103.84;;;2.21;100.00
12759;BME280;20944;47.048;15.390;2022-12-31T05:16:39;98194.03;;;2.64;100.00
12759;BME280;20944;47.048;15.390;2022-12-31T05:19:08;98188.94;;;2.70;100.00
12759;BME280;20944;47.048;15.390;2022-12-31T05:21:37;98194.06;;;2.67;100.00
12759;BME280;20944;47.048;15.390;2022-12-31T05:24:06;98197.50;;;2.66;100.00
12759;BME280;20944;47.048;15.390;2022-12-31T05:26:35;98146.31;;;2.39;100.00
12759;BME280;20944;47.048;15.390;2022-12-31T05:29:03;98208.00;;;2.77;100.00
12759;BME280;20944;47.048;15.390;2022-12-31T05:31:33;98202.75;;;2.74;100.00
12759;BME280;20944;47.048;15.390;2022-12-31T05:34:02;98216.56;;;2.73;100.00
12759;BME280;20944;47.048;15.390;2022-12-31T05:36:30;98225.91;;;2.63;100.00
12759;BME280;20944;47.048;15.390;2022-12-31T05:38:59;98205.19;;;2.60;100.00
12759;BME280;20944;47.048;15.390;2022-12-31T05:41:28;98210.38;;;2.63;100.00
12759;BME280;20944;47.048;15.390;2022-12-31T05:43:56;98189.50;;;2.48;100.00
12759;BME280;20944;47.048;15.390;2022-12-31T05:46:25;98169.44;;;2.32;100.00
12759;BME280;20944;47.048;15.390;2022-12-31T05:48:56;98222.44;;;2.63;100.00
12759;BME280;20944;47.048;15.390;2022-12-31T05:51:25;98226.81;;;2.65;100.00
12759;BME280;20944;47.048;15.390;2022-12-31T05:53:53;98212.22;;;2.72;100.00
12759;BME280;20944;47.048;15.390;2022-12-31T05:56:22;98205.56;;;2.89;100.00
12759;BME280;20944;47.048;15.390;2022-12-31T05:58:51;98184.00;;;2.90;100.00
12759;BME280;20944;47.048;15.390;2022-12-31T06:01:19;98147.47;;;2.64;100.00
12759;BME280;20944;47.048;15.390;2022-12-31T06:03:50;98202.97;;;2.92;100.00
12759;BME280;20944;47.048;15.390;2022-12-31T06:06:20;98209.88;;;2.92;100.00
12759;BME280;20944;47.048;15.390;2022-12-31T06:08:49;98239.31;;;3.00;100.00
12759;BME280;20944;47.048;15.390;2022-12-31T06:11:17;98227.19;;;2.96;100.00
12759;BME280;20944;47.048;15.390;2022-12-31T06:13:46;98224.56;;;2.93;100.00
12759;BME280;20944;47.048;15.390;2022-12-31T06:16:15;98228.06;;;2.98;100.00
12759;BME280;20944;47.048;15.390;2022-12-31T06:18:46;98229.84;;;3.02;100.00
12759;BME280;20944;47.048;15.390;2022-12-31T06:21:17;98155.31;;;2.72;100.00
12759;BME280;20944;47.048;15.390;2022-12-31T06:23:47;98238.50;;;3.04;100.00
12759;BME280;20944;47.048;15.390;2022-12-31T06:26:16;98238.53;;;3.07;100.00
12759;BME280;20944;47.048;15.390;2022-12-31T06:28:45;98235.13;;;3.10;100.00
12759;BME280;20944;47.048;15.390;2022-12-31T06:31:14;98244.53;;;3.05;100.00
12759;BME280;20944;47.048;15.390;2022-12-31T06:33:43;98247.91;;;2.97;100.00
12759;BME280;20944;47.048;15.390;2022-12-31T06:36:13;98244.41;;;2.94;100.00
12759;BME280;20944;47.048;15.390;2022-12-31T06:38:43;98246.19;;;2.98;100.00
12759;BME280;20944;47.048;15.390;2022-12-31T06:41:14;98246.13;;;2.92;100.00
12759;BME280;20944;47.048;15.390;2022-12-31T06:43:43;98242.66;;;2.93;100.00
12759;BME280;20944;47.048;15.390;2022-12-31T06:46:14;98252.13;;;2.89;100.00
12759;BME280;20944;47.048;15.390;2022-12-31T06:48:43;98241.66;;;2.80;100.00
12759;BME280;20944;47.048;15.390;2022-12-31T06:51:14;98272.09;;;3.01;100.00
12759;BME280;20944;47.048;15.390;2022-12-31T06:53:43;98271.22;;;2.97;100.00
12759;BME280;20944;47.048;15.390;2022-12-31T06:56:16;98278.16;;;3.02;100.00
12759;BME280;20944;47.048;15.390;2022-12-31T06:58:46;98298.06;;;3.06;100.00
12759;BME280;20944;47.048;15.390;2022-12-31T07:01:35;98281.88;;;3.22;100.00
12759;BME280;20944;47.048;15.390;2022-12-31T07:04:25;98278.41;;;3.21;100.00
12759;BME280;20944;47.048;15.390;2022-12-31T07:07:03;98313.81;;;3.22;100.00
12759;BME280;20944;47.048;15.390;2022-12-31T07:09:39;98278.97;;;2.99;100.00
12759;BME280;20944;47.048;15.390;2022-12-31T07:12:23;98124.44;;;2.14;100.00
12759;BME280;20944;47.048;15.390;2022-12-31T07:14:58;98301.59;;;3.12;100.00
12759;BME280;20944;47.048;15.390;2022-12-31T07:17:34;98299.84;;;3.11;100.00
12759;BME280;20944;47.048;15.390;2022-12-31T07:20:08;98298.19;;;3.16;100.00
12759;BME280;20944;47.048;15.390;2022-12-31T07:22:38;98317.25;;;3.23;100.00
12759;BME280;20944;47.048;15.390;2022-12-31T07:25:12;98315.69;;;3.34;100.00
12759;BME280;20944;47.048;15.390;2022-12-31T07:28:01;98299.22;;;3.32;100.00
12759;BME280;20944;47.048;15.390;2022-12-31T07:30:36;98289.66;;;3.23;100.00
12759;BME280;20944;47.048;15.390;2022-12-31T07:33:25;98326.28;;;3.56;100.00
12759;BME280;20944;47.048;15.390;2022-12-31T07:36:05;98311.78;;;3.74;100.00
12759;BME280;20944;47.048;15.390;2022-12-31T07:38:40;98272.78;;;3.62;100.00
12759;BME280;20944;47.048;15.390;2022-12-31T07:41:16;98108.00;;;2.84;100.00
12759;BME280;20944;47.048;15.390;2022-12-31T07:43:57;98333.91;;;4.28;100.00
12759;BME280;20944;47.048;15.390;2022-12-31T07:46:33;98327.97;;;4.45;100.00
12759;BME280;20944;47.048;15.390;2022-12-31T07:49:03;98335.03;;;4.61;100.00
12759;BME280;20944;47.048;15.390;2022-12-31T07:51:33;98289.88;;;4.38;100.00
12759;BME280;20944;47.048;15.390;2022-12-31T07:54:02;98342.06;;;4.77;100.00
12759;BME280;20944;47.048;15.390;2022-12-31T07:56:39;98347.28;;;4.82;100.00
12759;BME280;20944;47.048;15.390;2022-12-31T07:59:16;98358.50;;;4.76;100.00
12759;BME280;20944;47.048;15.390;2022-12-31T08:01:56;98334.16;;;4.60;100.00
12759;BME280;20944;47.048;15.390;2022-12-31T08:04:30;98354.97;;;4.67;100.00
12759;BME280;20944;47.048;15.390;2022-12-31T08:07:06;98361.91;;;4.69;100.00
12759;BME280;20944;47.048;15.390;2022-12-31T08:09:44;98367.13;;;4.72;100.00
12759;BME280;20944;47.048;15.390;2022-12-31T08:12:14;98339.44;;;4.74;100.00
12759;BME280;20944;47.048;15.390;2022-12-31T08:14:47;98332.44;;;4.61;100.00
12759;BME280;20944;47.048;15.390;2022-12-31T08:17:17;98367.22;;;4.87;100.00
12759;BME280;20944;47.048;15.390;2022-12-31T08:19:47;98369.81;;;4.86;100.00
12759;BME280;20944;47.048;15.390;2022-12-31T08:22:34;98359.44;;;4.89;100.00
12759;BME280;20944;47.048;15.390;2022-12-31T08:25:16;98382.94;;;5.03;100.00
12759;BME280;20944;47.048;15.390;2022-12-31T08:27:52;98357.66;;;4.83;100.00
12759;BME280;20944;47.048;15.390;2022-12-31T08:30:34;98380.28;;;5.00;100.00
12759;BME280;20944;47.048;15.390;2022-12-31T08:33:12;98378.56;;;4.97;100.00
12759;BME280;20944;47.048;15.390;2022-12-31T08:35:53;98390.69;;;4.98;100.00
12759;BME280;20944;47.048;15.390;2022-12-31T08:38:30;98394.16;;;5.02;100.00
12759;BME280;20944;47.048;15.390;2022-12-31T08:41:09;98413.22;;;5.08;100.00
12759;BME280;20944;47.048;15.390;2022-12-31T08:43:49;98426.25;;;5.13;100.00
12759;BME280;20944;47.048;15.390;2022-12-31T08:46:26;98421.94;;;5.13;100.00
12759;BME280;20944;47.048;15.390;2022-12-31T08:48:57;98428.84;;;5.14;100.00
12759;BME280;20944;47.048;15.390;2022-12-31T08:51:26;98416.81;;;5.27;100.00
12759;BME280;20944;47.048;15.390;2022-12-31T08:53:55;98417.69;;;5.28;100.00
12759;BME280;20944;47.048;15.390;2022-12-31T08:56:28;98420.19;;;5.14;100.00
12759;BME280;20944;47.048;15.390;2022-12-31T08:59:06;98403.69;;;5.03;100.00
12759;BME280;20944;47.048;15.390;2022-12-31T09:01:53;98391.53;;;4.99;100.00
12759;BME280;20944;47.048;15.390;2022-12-31T09:04:41;98402.84;;;5.04;100.00
12759;BME280;20944;47.048;15.390;2022-12-31T09:07:14;98409.78;;;5.08;100.00
12759;BME280;20944;47.048;15.390;2022-12-31T09:09:56;98410.63;;;5.07;100.00
12759;BME280;20944;47.048;15.390;2022-12-31T09:12:33;98399.41;;;5.11;100.00
12759;BME280;20944;47.048;15.390;2022-12-31T09:15:06;98397.72;;;5.18;100.00
12759;BME280;20944;47.048;15.390;2022-12-31T09:17:47;98386.53;;;5.34;100.00
12759;BME280;20944;47.048;15.390;2022-12-31T09:20:21;98325.69;;;4.87;100.00
12759;BME280;20944;47.048;15.390;2022-12-31T09:22:51;98391.66;;;5.20;100.00
12759;BME280;20944;47.048;15.390;2022-12-31T09:25:22;98393.41;;;5.20;100.00
12759;BME280;20944;47.048;15.390;2022-12-31T09:28:02;98408.19;;;5.30;100.00
12759;BME280;20944;47.048;15.390;2022-12-31T09:30:39;98394.28;;;5.25;100.00
12759;BME280;20944;47.048;15.390;2022-12-31T09:33:16;98378.69;;;5.17;100.00
12759;BME280;20944;47.048;15.390;2022-12-31T09:35:52;98382.09;;;5.10;100.00
12759;BME280;20944;47.048;15.390;2022-12-31T09:38:26;98358.69;;;5.04;100.00
12759;BME280;20944;47.048;15.390;2022-12-31T09:41:14;98376.13;;;5.22;100.00
12759;BME280;20944;47.048;15.390;2022-12-31T09:44:03;98377.88;;;5.33;100.00
12759;BME280;20944;47.048;15.390;2022-12-31T09:50:26;98382.31;;;5.56;100.00
12759;BME280;20944;47.048;15.390;2022-12-31T09:56:04;98247.75;;;4.81;100.00
12759;BME280;20944;47.048;15.390;2022-12-31T09:58:44;98378.88;;;5.60;100.00
12759;BME280;20944;47.048;15.390;2022-12-31T10:01:26;98318.94;;;5.20;100.00
12759;BME280;20944;47.048;15.390;2022-12-31T10:04:23;98363.22;;;5.45;100.00
12759;BME280;20944;47.048;15.390;2022-12-31T10:07:04;98391.00;;;5.59;100.00
12759;BME280;20944;47.048;15.390;2022-12-31T10:09:54;98399.69;;;5.63;100.00
12759;BME280;20944;47.048;15.390;2022-12-31T10:12:57;98398.88;;;5.73;100.00
12759;BME280;20944;47.048;15.390;2022-12-31T10:18:40;98393.72;;;5.90;100.00
12759;BME280;20944;47.048;15.390;2022-12-31T10:21:24;98388.56;;;5.91;100.00
12759;BME280;20944;47.048;15.390;2022-12-31T10:24:20;98386.84;;;6.01;100.00
12759;BME280;20944;47.048;15.390;2022-12-31T10:27:02;98379.94;;;6.11;100.00
12759;BME280;20944;47.048;15.390;2022-12-31T10:29:44;98238.44;;;5.38;100.00
12759;BME280;20944;47.048;15.390;2022-12-31T10:32:17;98380.81;;;6.28;100.00
12759;BME280;20944;47.048;15.390;2022-12-31T10:34:54;98378.25;;;6.37;100.00
12759;BME280;20944;47.048;15.390;2022-12-31T10:37:28;98383.44;;;6.53;100.00
12759;BME280;20944;47.048;15.390;2022-12-31T10:40:14;98340.91;;;6.34;100.00
12759;BME280;20944;47.048;15.390;2022-12-31T10:43:07;98374.75;;;6.78;100.00
12759;BME280;20944;47.048;15.390;2022-12-31T10:49:24;98348.69;;;6.99;100.00
12759;BME280;20944;47.048;15.390;2022-12-31T10:52:28;98359.06;;;7.19;100.00
12759;BME280;20944;47.048;15.390;2022-12-31T10:55:48;98358.19;;;7.29;100.00
12759;BME280;20944;47.048;15.390;2022-12-31T11:01:30;98364.16;;;7.57;100.00
12759;BME280;20944;47.048;15.390;2022-12-31T11:04:25;98365.84;;;7.69;100.00
12759;BME280;20944;47.048;15.390;2022-12-31T11:13:47;98341.34;;;8.01;100.00
12759;BME280;20944;47.048;15.390;2022-12-31T11:16:37;98323.06;;;8.01;100.00
12759;BME280;20944;47.048;15.390;2022-12-31T11:19:18;98333.44;;;8.11;100.00
12759;BME280;20944;47.048;15.390;2022-12-31T11:22:01;98346.34;;;8.33;100.00
12759;BME280;20944;47.048;15.390;2022-12-31T11:24:42;98340.19;;;8.45;100.00
12759;BME280;20944;47.048;15.390;2022-12-31T11:27:37;98292.38;;;8.33;100.00
12759;BME280;20944;47.048;15.390;2022-12-31T11:30:21;98330.34;;;8.76;100.00
12759;BME280;20944;47.048;15.390;2022-12-31T11:33:01;98329.38;;;8.86;100.00
12759;BME280;20944;47.048;15.390;2022-12-31T11:35:43;98323.09;;;9.05;100.00
12759;BME280;20944;47.048;15.390;2022-12-31T11:38:22;98273.69;;;8.82;100.00
12759;BME280;20944;47.048;15.390;2022-12-31T11:40:59;98316.59;;;9.40;100.00
12759;BME280;20944;47.048;15.390;2022-12-31T11:43:33;98328.59;;;9.58;100.00
12759;BME280;20944;47.048;15.390;2022-12-31T11:49:27;98318.78;;;9.73;100.00
12759;BME280;20944;47.048;15.390;2022-12-31T11:52:08;98340.41;;;9.88;100.00
12759;BME280;20944;47.048;15.390;2022-12-31T11:55:03;98333.47;;;9.87;100.00
12759;BME280;20944;47.048;15.390;2022-12-31T11:57:39;98342.91;;;9.97;100.00
12759;BME280;20944;47.048;15.390;2022-12-31T12:00:14;98337.63;;;10.00;100.00
12759;BME280;20944;47.048;15.390;2022-12-31T12:02:46;98337.38;;;10.18;100.00
12759;BME280;20944;47.048;15.390;2022-12-31T12:05:19;98232.50;;;9.69;100.00
12759;BME280;20944;47.048;15.390;2022-12-31T12:07:50;98338.81;;;10.39;100.00
12759;BME280;20944;47.048;15.390;2022-12-31T12:10:24;98331.66;;;10.49;100.00
12759;BME280;20944;47.048;15.390;2022-12-31T12:13:11;98255.28;;;10.18;100.00
12759;BME280;20944;47.048;15.390;2022-12-31T12:15:43;98326.19;;;10.64;100.00
12759;BME280;20944;47.048;15.390;2022-12-31T12:18:23;98328.78;;;10.66;100.00
12759;BME280;20944;47.048;15.390;2022-12-31T12:21:02;98332.41;;;10.59;100.00
12759;BME280;20944;47.048;15.390;2022-12-31T12:23:32;98335.13;;;10.52;100.00
12759;BME280;20944;47.048;15.390;2022-12-31T12:26:01;98336.03;;;10.50;100.00
12759;BME280;20944;47.048;15.390;2022-12-31T12:28:41;98341.31;;;10.47;100.00
12759;BME280;20944;47.048;15.390;2022-12-31T12:31:18;98336.03;;;10.50;100.00
12759;BME280;20944;47.048;15.390;2022-12-31T12:33:49;98332.53;;;10.49;100.00
12759;BME280;20944;47.048;15.390;2022-12-31T12:36:19;98329.25;;;10.37;100.00
12759;BME280;20944;47.048;15.390;2022-12-31T12:39:00;98331.13;;;10.29;100.00
12759;BME280;20944;47.048;15.390;2022-12-31T12:41:28;98270.50;;;9.93;100.00
12759;BME280;20944;47.048;15.390;2022-12-31T12:44:05;98325.09;;;10.20;100.00
12759;BME280;20944;47.048;15.390;2022-12-31T12:46:37;98323.38;;;10.18;100.00
12759;BME280;20944;47.048;15.390;2022-12-31T12:49:17;98285.34;;;9.92;100.00
12759;BME280;20944;47.048;15.390;2022-12-31T12:51:56;98334.75;;;10.18;100.00
12759;BME280;20944;47.048;15.390;2022-12-31T12:54:30;98328.56;;;10.22;100.00
12759;BME280;20944;47.048;15.390;2022-12-31T12:57:04;98323.38;;;10.19;100.00
12759;BME280;20944;47.048;15.390;2022-12-31T12:59:44;98318.97;;;10.21;100.00
12759;BME280;20944;47.048;15.390;2022-12-31T13:02:30;98325.88;;;10.29;100.00
12759;BME280;20944;47.048;15.390;2022-12-31T13:05:09;98323.84;;;10.47;100.00
12759;BME280;20944;47.048;15.390;2022-12-31T13:07:51;98280.44;;;11.69;100.00
12759;BME280;20944;47.048;15.390;2022-12-31T13:10:36;98311.63;;;13.59;100.00
12759;BME280;20944;47.048;15.390;2022-12-31T13:13:15;98307.75;;;15.33;66.42
12759;BME280;20944;47.048;15.390;2022-12-31T13:15:56;98269.75;;;16.93;59.71
12759;BME280;20944;47.048;15.390;2022-12-31T13:18:37;98293.91;;;18.05;54.52
12759;BME280;20944;47.048;15.390;2022-12-31T13:21:21;98300.81;;;18.81;51.48
12759;BME280;20944;47.048;15.390;2022-12-31T13:24:03;98300.34;;;19.25;50.12
12759;BME280;20944;47.048;15.390;2022-12-31T13:26:39;98290.56;;;19.76;47.87
12759;BME280;20944;47.048;15.390;2022-12-31T13:29:15;98288.16;;;20.66;46.11
12759;BME280;20944;47.048;15.390;2022-12-31T13:31:46;98278.97;;;21.32;43.69
12759;BME280;20944;47.048;15.390;2022-12-31T13:34:21;98283.34;;;21.03;43.18
12759;BME280;20944;47.048;15.390;2022-12-31T13:36:52;98276.91;;;21.21;42.60
12759;BME280;20944;47.048;15.390;2022-12-31T13:39:26;98288.41;;;21.38;42.10
12759;BME280;20944;47.048;15.390;2022-12-31T13:42:00;98287.84;;;21.47;42.21
12759;BME280;20944;47.048;15.390;2022-12-31T13:44:35;98285.72;;;21.80;41.34
12759;BME280;20944;47.048;15.390;2022-12-31T13:47:10;98286.50;;;21.83;41.22
12759;BME280;20944;47.048;15.390;2022-12-31T13:49:45;98279.28;;;21.56;40.80
12759;BME280;20944;47.048;15.390;2022-12-31T13:52:23;98269.72;;;20.63;42.36
12759;BME280;20944;47.048;15.390;2022-12-31T13:55:00;98251.25;;;18.63;45.58